createdAt,value
2018-02-04T00:00:52.030Z,99383.02
2018-02-04T00:03:19.485Z,99382.14
2018-02-04T00:05:46.957Z,99381.64
2018-02-04T00:08:14.448Z,99393.31
2018-02-04T00:10:41.937Z,99390.41
2018-02-04T00:13:09.701Z,99396.77
2018-02-04T00:15:37.169Z,99392.02
2018-02-04T00:18:04.661Z,99403.24
2018-02-04T00:20:32.163Z,99399.11
2018-02-04T00:22:59.628Z,99403.81
2018-02-04T00:25:27.087Z,99401.97
2018-02-04T00:27:54.624Z,99397.82
2018-02-04T00:30:22.139Z,99396.65
2018-02-04T00:32:49.620Z,99405.78
2018-02-04T00:35:17.083Z,99404.95
2018-02-04T00:37:44.543Z,99405.61
2018-02-04T00:40:12.010Z,99402.67
2018-02-04T00:42:39.561Z,99403.38
2018-02-04T00:45:07.143Z,99407.20
2018-02-04T00:47:34.614Z,99404.21
2018-02-04T00:50:02.162Z,99401.92
2018-02-04T00:52:29.629Z,99408.27
2018-02-04T00:54:57.130Z,99412.84
2018-02-04T00:57:24.669Z,99421.64
2018-02-04T00:59:52.134Z,99418.65
2018-02-04T01:02:19.601Z,99426.11
2018-02-04T01:04:47.066Z,99421.98
2018-02-04T01:07:14.551Z,99425.19
2018-02-04T01:09:42.032Z,99426.47
2018-02-04T01:12:09.496Z,99421.52
2018-02-04T01:14:36.980Z,99423.15
2018-02-04T01:17:04.453Z,99429.47
2018-02-04T01:19:32.069Z,99424.98
2018-02-04T01:21:59.619Z,99430.92
2018-02-04T01:24:27.117Z,99434.30
2018-02-04T01:26:54.606Z,99440.50
2018-02-04T01:29:22.094Z,99441.07
2018-02-04T01:31:49.592Z,99441.00
2018-02-04T01:34:17.238Z,99442.31
2018-02-04T01:36:44.740Z,99438.38
2018-02-04T01:39:12.337Z,99441.41
2018-02-04T01:41:39.884Z,99444.77
2018-02-04T01:44:07.350Z,99442.56
2018-02-04T01:46:34.921Z,99449.39
2018-02-04T01:49:02.548Z,99451.48
2018-02-04T01:51:30.053Z,99447.45
2018-02-04T01:53:57.574Z,99449.73
2018-02-04T01:56:25.096Z,99439.88
2018-02-04T01:58:52.772Z,99451.71
2018-02-04T02:01:20.340Z,99444.09
2018-02-04T02:03:47.809Z,99454.27
2018-02-04T02:06:15.280Z,99454.70
2018-02-04T02:08:42.740Z,99457.03
2018-02-04T02:11:10.188Z,99459.72
2018-02-04T02:13:37.651Z,99464.78
2018-02-04T02:16:05.174Z,99465.88
2018-02-04T02:18:32.744Z,99463.19
2018-02-04T02:21:00.192Z,99462.08
2018-02-04T02:23:27.792Z,99458.08
2018-02-04T02:25:55.244Z,99468.20
2018-02-04T02:28:22.687Z,99467.76
2018-02-04T02:30:50.161Z,99472.27
2018-02-04T02:33:17.624Z,99470.95
2018-02-04T02:35:45.175Z,99473.83
2018-02-04T02:38:12.640Z,99474.92
2018-02-04T02:40:40.108Z,99477.19
2018-02-04T02:43:07.581Z,99482.76
2018-02-04T02:45:35.068Z,99489.61
2018-02-04T02:48:02.635Z,99488.11
2018-02-04T02:50:30.100Z,99489.83
2018-02-04T02:52:57.586Z,99496.48
2018-02-04T02:55:25.054Z,99498.42
2018-02-04T02:57:52.533Z,99496.83
2018-02-04T03:00:20.001Z,99507.66
2018-02-04T03:02:47.517Z,99500.89
2018-02-04T03:05:14.968Z,99501.41
2018-02-04T03:07:42.444Z,99515.41
2018-02-04T03:10:09.937Z,99510.24
2018-02-04T03:12:37.432Z,99514.30
2018-02-04T03:15:04.928Z,99508.23
2018-02-04T03:17:32.380Z,99517.47
2018-02-04T03:19:59.858Z,99515.23
2018-02-04T03:22:27.319Z,99513.91
2018-02-04T03:24:54.794Z,99520.67
2018-02-04T03:27:22.271Z,99521.66
2018-02-04T03:29:49.727Z,99521.36
2018-02-04T03:32:17.204Z,99522.35
2018-02-04T03:34:44.669Z,99530.95
2018-02-04T03:37:12.121Z,99532.42
2018-02-04T03:39:39.611Z,99538.05
2018-02-04T03:42:07.173Z,99542.53
2018-02-04T03:44:34.663Z,99541.00
2018-02-04T03:47:02.125Z,99550.11
2018-02-04T03:49:29.584Z,99547.48
2018-02-04T03:51:57.052Z,99553.55
2018-02-04T03:54:24.512Z,99552.81
2018-02-04T03:56:52.079Z,99552.80
2018-02-04T03:59:19.555Z,99553.73
2018-02-04T04:01:47.114Z,99560.88
2018-02-04T04:04:14.846Z,99557.73
2018-02-04T04:06:42.346Z,99570.41
2018-02-04T04:09:09.806Z,99577.35
2018-02-04T04:11:37.264Z,99576.30
2018-02-04T04:14:04.724Z,99574.83
2018-02-04T04:16:32.187Z,99578.72
2018-02-04T04:18:59.659Z,99579.70
2018-02-04T04:21:27.116Z,99580.72
2018-02-04T04:23:54.633Z,99588.54
2018-02-04T04:26:22.089Z,99590.08
2018-02-04T04:28:49.580Z,99594.10
2018-02-04T04:31:17.041Z,99597.99
2018-02-04T04:33:44.535Z,99596.05
2018-02-04T04:36:12.024Z,99596.56
2018-02-04T04:38:39.480Z,99596.10
2018-02-04T04:41:06.965Z,99592.67
2018-02-04T04:43:34.431Z,99592.81
2018-02-04T04:46:02.016Z,99602.97
2018-02-04T04:48:29.616Z,99612.23
2018-02-04T04:50:57.170Z,99603.50
2018-02-04T04:53:24.727Z,99605.44
2018-02-04T04:55:52.487Z,99609.05
2018-02-04T04:58:19.965Z,99615.95
2018-02-04T05:00:47.550Z,99617.66
2018-02-04T05:03:15.043Z,99623.34
2018-02-04T05:05:42.592Z,99618.91
2018-02-04T05:08:10.193Z,99622.91
2018-02-04T05:10:37.645Z,99628.09
2018-02-04T05:13:05.130Z,99634.59
2018-02-04T05:15:32.681Z,99634.53
2018-02-04T05:18:00.249Z,99632.59
2018-02-04T05:20:27.702Z,99639.12
2018-02-04T05:22:55.399Z,99644.58
2018-02-04T05:25:22.865Z,99647.38
2018-02-04T05:27:50.328Z,99648.70
2018-02-04T05:30:17.786Z,99651.37
2018-02-04T05:32:45.228Z,99649.44
2018-02-04T05:35:12.747Z,99652.02
2018-02-04T05:37:40.219Z,99660.82
2018-02-04T05:40:07.795Z,99661.71
2018-02-04T05:42:35.475Z,99663.80
2018-02-04T05:45:02.995Z,99672.20
2018-02-04T05:47:30.451Z,99668.30
2018-02-04T05:49:57.906Z,99676.67
2018-02-04T05:52:25.443Z,99683.80
2018-02-04T05:54:52.897Z,99688.48
2018-02-04T05:57:20.364Z,99695.64
2018-02-04T05:59:47.824Z,99694.56
2018-02-04T06:02:15.340Z,99709.20
2018-02-04T06:04:42.907Z,99712.75
2018-02-04T06:07:10.483Z,99708.64
2018-02-04T06:09:38.044Z,99720.17
2018-02-04T06:12:05.492Z,99720.30
2018-02-04T06:14:32.953Z,99723.98
2018-02-04T06:17:00.466Z,99725.11
2018-02-04T06:19:27.947Z,99728.64
2018-02-04T06:21:55.408Z,99728.13
2018-02-04T06:24:25.380Z,99739.53
2018-02-04T06:26:52.985Z,99738.80
2018-02-04T06:29:20.464Z,99750.08
2018-02-04T06:31:47.918Z,99752.97
2018-02-04T06:34:15.425Z,99756.01
2018-02-04T06:36:42.870Z,99766.91
2018-02-04T06:39:10.340Z,99771.91
2018-02-04T06:41:37.796Z,99780.43
2018-02-04T06:44:05.281Z,99783.72
2018-02-04T06:46:32.780Z,99787.00
2018-02-04T06:49:00.260Z,99791.61
2018-02-04T06:51:27.829Z,99794.60
2018-02-04T06:53:55.400Z,99796.95
2018-02-04T06:56:22.911Z,99797.63
2018-02-04T06:58:50.367Z,99809.16
2018-02-04T07:01:17.874Z,99810.08
2018-02-04T07:03:45.339Z,99812.78
2018-02-04T07:06:12.832Z,99814.89
2018-02-04T07:08:40.299Z,99813.05
2018-02-04T07:11:07.793Z,99825.52
2018-02-04T07:13:35.377Z,99835.42
2018-02-04T07:16:02.824Z,99840.16
2018-02-04T07:18:30.285Z,99848.47
2018-02-04T07:20:57.750Z,99853.28
2018-02-04T07:23:25.220Z,99854.09
2018-02-04T07:25:52.676Z,99863.37
2018-02-04T07:28:20.159Z,99869.52
2018-02-04T07:30:47.619Z,99873.66
2018-02-04T07:33:15.091Z,99872.19
2018-02-04T07:35:42.560Z,99883.73
2018-02-04T07:38:10.027Z,99878.73
2018-02-04T07:40:37.490Z,99888.25
2018-02-04T07:43:04.964Z,99890.67
2018-02-04T07:45:32.454Z,99892.64
2018-02-04T07:47:59.919Z,99896.66
2018-02-04T07:50:27.422Z,99900.19
2018-02-04T07:52:54.896Z,99905.86
2018-02-04T07:55:22.366Z,99906.50
2018-02-04T07:57:49.840Z,99916.47
2018-02-04T08:00:17.411Z,99917.39
2018-02-04T08:02:44.877Z,99926.69
2018-02-04T08:05:12.367Z,99931.20
2018-02-04T08:07:39.839Z,99933.30
2018-02-04T08:10:07.406Z,99938.84
2018-02-04T08:12:34.894Z,99944.92
2018-02-04T08:15:02.378Z,99948.36
2018-02-04T08:17:29.836Z,99949.80
2018-02-04T08:19:57.328Z,99953.10
2018-02-04T08:22:24.796Z,99955.34
2018-02-04T08:24:52.318Z,99961.84
2018-02-04T08:27:19.809Z,99965.47
2018-02-04T08:29:47.394Z,99969.34
2018-02-04T08:32:14.889Z,99970.26
2018-02-04T08:34:42.375Z,99976.15
2018-02-04T08:37:09.851Z,99979.13
2018-02-04T08:39:37.316Z,99983.06
2018-02-04T08:42:04.782Z,99983.95
2018-02-04T08:44:32.241Z,99987.11
2018-02-04T08:46:59.738Z,99996.14
2018-02-04T08:49:27.240Z,100006.95
2018-02-04T08:51:54.800Z,100006.25
2018-02-04T08:54:22.278Z,100005.90
2018-02-04T08:56:49.806Z,100010.68
2018-02-04T08:59:17.271Z,100018.65
2018-02-04T09:01:44.744Z,100025.77
2018-02-04T09:04:12.210Z,100023.81
2018-02-04T09:06:39.663Z,100027.49
2018-02-04T09:09:07.197Z,100033.29
2018-02-04T09:11:34.669Z,100040.78
2018-02-04T09:14:02.236Z,100039.98
2018-02-04T09:16:29.696Z,100048.38
2018-02-04T09:18:57.285Z,100054.16
2018-02-04T09:21:24.740Z,100058.13
2018-02-04T09:23:52.209Z,100064.34
2018-02-04T09:26:19.684Z,100065.15
2018-02-04T09:28:47.144Z,100073.63
2018-02-04T09:31:14.636Z,100075.78
2018-02-04T09:33:42.089Z,100082.55
2018-02-04T09:36:09.578Z,100087.21
2018-02-04T09:38:37.028Z,100089.36
2018-02-04T09:41:04.625Z,100103.12
2018-02-04T09:43:32.095Z,100102.44
2018-02-04T09:45:59.552Z,100111.59
2018-02-04T09:48:27.031Z,100112.48
2018-02-04T09:50:54.488Z,100109.72
2018-02-04T09:53:21.985Z,100112.16
2018-02-04T09:55:49.456Z,100117.55
2018-02-04T09:58:16.971Z,100123.55
2018-02-04T10:00:44.431Z,100118.63
2018-02-04T10:03:11.967Z,100121.59
2018-02-04T10:05:39.432Z,100126.08
2018-02-04T10:08:06.918Z,100123.95
2018-02-04T10:10:34.403Z,100129.91
2018-02-04T10:13:01.865Z,100134.75
2018-02-04T10:15:29.333Z,100128.17
2018-02-04T10:17:56.826Z,100133.62
2018-02-04T10:20:24.301Z,100124.90
2018-02-04T10:22:51.881Z,100132.23
2018-02-04T10:25:19.365Z,100139.55
2018-02-04T10:27:46.819Z,100140.33
2018-02-04T10:30:14.294Z,100141.20
2018-02-04T10:32:41.791Z,100145.90
2018-02-04T10:35:09.590Z,100142.95
2018-02-04T10:37:37.165Z,100142.42
2018-02-04T10:40:04.637Z,100150.73
2018-02-04T10:42:32.120Z,100154.75
2018-02-04T10:44:59.597Z,100152.33
2018-02-04T10:47:27.060Z,100158.04
2018-02-04T10:49:54.528Z,100163.11
2018-02-04T10:52:22.043Z,100166.14
2018-02-04T10:54:49.505Z,100163.93
2018-02-04T10:57:16.980Z,100169.22
2018-02-04T10:59:44.477Z,100174.64
2018-02-04T11:02:11.967Z,100178.81
2018-02-04T11:04:39.437Z,100185.64
2018-02-04T11:07:06.979Z,100176.84
2018-02-04T11:09:34.454Z,100185.38
2018-02-04T11:12:01.926Z,100191.90
2018-02-04T11:14:29.401Z,100186.44
2018-02-04T11:16:56.861Z,100198.00
2018-02-04T11:19:24.388Z,100202.16
2018-02-04T11:21:51.820Z,100201.03
2018-02-04T11:24:19.290Z,100211.20
2018-02-04T11:26:46.747Z,100207.83
2018-02-04T11:29:14.226Z,100215.97
2018-02-04T11:31:41.708Z,100224.89
2018-02-04T11:34:09.215Z,100225.48
2018-02-04T11:36:36.682Z,100229.38
2018-02-04T11:39:04.175Z,100229.19
2018-02-04T11:41:31.684Z,100234.69
2018-02-04T11:43:59.175Z,100232.33
2018-02-04T11:46:26.639Z,100234.17
2018-02-04T11:48:54.092Z,100226.55
2018-02-04T11:51:21.564Z,100231.19
2018-02-04T11:53:49.043Z,100238.89
2018-02-04T11:56:16.584Z,100238.84
2018-02-04T11:58:44.053Z,100239.57
2018-02-04T12:01:11.528Z,100248.23
2018-02-04T12:03:39.000Z,100244.80
2018-02-04T12:06:06.492Z,100250.81
2018-02-04T12:08:34.062Z,100252.40
2018-02-04T12:11:02.050Z,100258.54
2018-02-04T12:13:29.623Z,100260.33
2018-02-04T12:15:57.114Z,100261.08
2018-02-04T12:18:24.712Z,100259.93
2018-02-04T12:20:52.222Z,100262.97
2018-02-04T12:23:19.798Z,100268.27
2018-02-04T12:25:47.380Z,100275.95
2018-02-04T12:28:14.953Z,100276.73
2018-02-04T12:30:43.395Z,100278.08
2018-02-04T12:33:10.970Z,100277.91
2018-02-04T12:35:38.486Z,100290.81
2018-02-04T12:38:05.992Z,100290.95
2018-02-04T12:40:33.538Z,100284.97
2018-02-04T12:43:01.059Z,100289.30
2018-02-04T12:45:28.559Z,100286.25
2018-02-04T12:47:56.039Z,100288.48
2018-02-04T12:50:23.541Z,100290.99
2018-02-04T12:52:51.278Z,100292.42
2018-02-04T12:55:18.759Z,100299.10
2018-02-04T12:57:46.229Z,100305.89
2018-02-04T13:00:13.989Z,100299.97
2018-02-04T13:02:41.432Z,100309.22
2018-02-04T13:05:08.901Z,100311.09
2018-02-04T13:07:36.446Z,100316.69
2018-02-04T13:10:03.914Z,100321.19
2018-02-04T13:12:31.452Z,100327.81
2018-02-04T13:14:58.916Z,100331.68
2018-02-04T13:17:26.492Z,100339.91
2018-02-04T13:19:54.001Z,100337.91
2018-02-04T13:22:21.472Z,100351.50
2018-02-04T13:24:48.937Z,100352.16
2018-02-04T13:27:16.424Z,100361.28
2018-02-04T13:29:43.883Z,100359.27
2018-02-04T13:32:11.355Z,100364.81
2018-02-04T13:34:38.832Z,100369.17
2018-02-04T13:37:07.337Z,100379.61
2018-02-04T13:39:34.847Z,100382.63
2018-02-04T13:42:02.308Z,100385.77
2018-02-04T13:44:29.774Z,100389.50
2018-02-04T13:46:57.232Z,100394.94
2018-02-04T13:49:24.704Z,100401.40
2018-02-04T13:51:52.156Z,100403.23
2018-02-04T13:54:19.862Z,100408.02
2018-02-04T13:56:47.338Z,100403.84
2018-02-04T13:59:14.789Z,100405.00
2018-02-04T14:01:42.256Z,100407.25
2018-02-04T14:04:09.742Z,100413.45
2018-02-04T14:06:37.229Z,100415.45
2018-02-04T14:09:04.682Z,100415.86
2018-02-04T14:11:32.165Z,100427.59
2018-02-04T14:13:59.624Z,100430.28
2018-02-04T14:16:27.103Z,100433.72
2018-02-04T14:18:54.553Z,100431.03
2018-02-04T14:21:22.112Z,100433.63
2018-02-04T14:23:49.603Z,100436.27
2018-02-04T14:26:17.073Z,100446.63
2018-02-04T14:28:44.562Z,100449.45
2018-02-04T14:31:12.039Z,100449.77
2018-02-04T14:33:39.565Z,100453.87
2018-02-04T14:36:07.060Z,100458.24
2018-02-04T14:38:34.559Z,100459.64
2018-02-04T14:41:02.037Z,100467.77
2018-02-04T14:43:29.514Z,100463.33
2018-02-04T14:45:56.968Z,100468.23
2018-02-04T14:48:24.459Z,100471.34
2018-02-04T14:50:51.928Z,100472.00
2018-02-04T14:53:19.398Z,100477.56
2018-02-04T14:55:46.883Z,100480.27
2018-02-04T14:58:14.344Z,100492.38
2018-02-04T15:00:41.813Z,100496.27
2018-02-04T15:03:09.292Z,100497.22
2018-02-04T15:05:36.781Z,100494.59
2018-02-04T15:08:04.239Z,100495.70
2018-02-04T15:10:31.718Z,100505.47
2018-02-04T15:12:59.181Z,100511.08
2018-02-04T15:15:26.677Z,100509.03
2018-02-04T15:17:54.136Z,100518.14
2018-02-04T15:20:21.614Z,100522.50
2018-02-04T15:22:49.140Z,100527.89
2018-02-04T15:25:16.584Z,100528.82
2018-02-04T15:27:44.056Z,100533.84
2018-02-04T15:30:11.525Z,100538.61
2018-02-04T15:32:39.010Z,100539.52
2018-02-04T15:35:06.466Z,100543.97
2018-02-04T15:37:33.964Z,100552.70
2018-02-04T15:40:01.438Z,100551.48
2018-02-04T15:42:28.906Z,100556.36
2018-02-04T15:44:56.416Z,100560.44
2018-02-04T15:47:23.877Z,100563.88
2018-02-04T15:49:51.342Z,100576.88
2018-02-04T15:52:18.872Z,100585.02
2018-02-04T15:54:46.353Z,100583.67
2018-02-04T15:57:14.152Z,100594.05
2018-02-04T15:59:41.621Z,100595.16
2018-02-04T16:02:09.077Z,100592.52
2018-02-04T16:04:36.726Z,100601.76
2018-02-04T16:07:04.254Z,100607.63
2018-02-04T16:09:31.720Z,100610.66
2018-02-04T16:11:59.658Z,100605.39
2018-02-04T16:14:27.130Z,100618.89
2018-02-04T16:16:54.651Z,100617.96
2018-02-04T16:19:22.168Z,100622.28
2018-02-04T16:21:49.651Z,100626.61
2018-02-04T16:24:17.503Z,100632.08
2018-02-04T16:26:45.012Z,100637.14
2018-02-04T16:29:12.478Z,100642.70
2018-02-04T16:31:39.976Z,100638.53
2018-02-04T16:34:07.450Z,100642.56
2018-02-04T16:36:34.931Z,100645.09
2018-02-04T16:39:02.408Z,100643.16
2018-02-04T16:41:29.989Z,100645.90
2018-02-04T16:43:57.564Z,100654.72
2018-02-04T16:46:25.029Z,100659.84
2018-02-04T16:48:52.566Z,100660.03
2018-02-04T16:51:20.038Z,100659.59
2018-02-04T16:53:47.765Z,100674.80
2018-02-04T16:56:15.247Z,100679.70
2018-02-04T16:58:42.702Z,100687.77
2018-02-04T17:01:10.334Z,100690.58
2018-02-04T17:03:37.794Z,100695.22
2018-02-04T17:06:05.272Z,100695.51
2018-02-04T17:08:32.773Z,100703.36
2018-02-04T17:11:00.264Z,100703.02
2018-02-04T17:13:27.876Z,100709.70
2018-02-04T17:15:55.370Z,100710.38
2018-02-04T17:18:22.845Z,100712.95
2018-02-04T17:20:50.346Z,100719.89
2018-02-04T17:23:17.810Z,100722.91
2018-02-04T17:25:45.469Z,100729.48
2018-02-04T17:28:12.970Z,100733.50
2018-02-04T17:30:40.480Z,100735.48
2018-02-04T17:33:07.949Z,100737.42
2018-02-04T17:35:35.504Z,100736.26
2018-02-04T17:38:02.991Z,100734.59
2018-02-04T17:40:30.493Z,100731.72
2018-02-04T17:42:57.966Z,100737.14
2018-02-04T17:45:25.461Z,100744.24
2018-02-04T17:47:52.941Z,100749.89
2018-02-04T17:50:20.458Z,100750.30
2018-02-04T17:52:47.924Z,100755.64
2018-02-04T17:55:15.496Z,100756.09
2018-02-04T17:57:43.046Z,100759.63
2018-02-04T18:00:10.547Z,100761.88
2018-02-04T18:02:38.061Z,100767.21
2018-02-04T18:05:05.664Z,100770.80
2018-02-04T18:07:33.405Z,100772.98
2018-02-04T18:10:01.001Z,100774.55
2018-02-04T18:12:28.508Z,100782.33
2018-02-04T18:14:55.972Z,100783.80
2018-02-04T18:17:23.498Z,100781.67
2018-02-04T18:19:51.038Z,100789.69
2018-02-04T18:22:18.551Z,100790.75
2018-02-04T18:24:46.112Z,100795.47
2018-02-04T18:27:13.663Z,100794.94
2018-02-04T18:29:41.185Z,100795.80
2018-02-04T18:32:08.681Z,100794.90
2018-02-04T18:34:36.178Z,100794.48
2018-02-04T18:37:03.636Z,100802.33
2018-02-04T18:39:31.132Z,100797.85
2018-02-04T18:41:58.632Z,100805.23
2018-02-04T18:44:26.179Z,100806.84
2018-02-04T18:46:53.712Z,100801.73
2018-02-04T18:49:21.260Z,100810.08
2018-02-04T18:51:48.716Z,100813.98
2018-02-04T18:54:16.203Z,100819.03
2018-02-04T18:56:43.762Z,100818.41
2018-02-04T18:59:11.330Z,100823.70
2018-02-04T19:01:38.870Z,100817.94
2018-02-04T19:04:06.341Z,100819.22
2018-02-04T19:06:33.921Z,100816.56
2018-02-04T19:09:01.407Z,100819.30
2018-02-04T19:11:29.019Z,100826.77
2018-02-04T19:13:56.558Z,100828.32
2018-02-04T19:16:24.077Z,100838.45
2018-02-04T19:18:51.564Z,100839.91
2018-02-04T19:21:19.093Z,100839.80
2018-02-04T19:23:46.658Z,100841.28
2018-02-04T19:26:14.124Z,100848.58
2018-02-04T19:28:41.592Z,100840.83
2018-02-04T19:31:09.076Z,100852.52
2018-02-04T19:33:36.574Z,100856.97
2018-02-04T19:36:04.317Z,100851.78
2018-02-04T19:38:32.022Z,100855.44
2018-02-04T19:40:59.552Z,100862.27
2018-02-04T19:43:27.019Z,100868.03
2018-02-04T19:45:54.533Z,100871.14
2018-02-04T19:48:22.155Z,100873.93
2018-02-04T19:50:49.668Z,100875.47
2018-02-04T19:53:17.197Z,100875.80
2018-02-04T19:55:44.724Z,100881.52
2018-02-04T19:58:12.290Z,100878.80
2018-02-04T20:00:39.810Z,100883.00
2018-02-04T20:03:07.511Z,100881.00
2018-02-04T20:05:34.984Z,100882.57
2018-02-04T20:08:02.516Z,100888.68
2018-02-04T20:10:30.065Z,100892.79
2018-02-04T20:12:57.642Z,100894.78
2018-02-04T20:15:25.553Z,100900.65
2018-02-04T20:17:53.072Z,100897.92
2018-02-04T20:20:20.664Z,100905.80
2018-02-04T20:22:48.195Z,100902.73
2018-02-04T20:25:15.702Z,100910.16
2018-02-04T20:27:43.240Z,100909.34
2018-02-04T20:30:10.814Z,100919.31
2018-02-04T20:32:50.153Z,100911.37
2018-02-04T20:35:17.626Z,100908.00
2018-02-04T20:37:45.236Z,100911.89
2018-02-04T20:40:12.763Z,100917.96
2018-02-04T20:42:40.289Z,100932.33
2018-02-04T20:45:07.771Z,100928.86
2018-02-04T20:47:35.252Z,100935.03
2018-02-04T20:50:02.791Z,100938.96
2018-02-04T20:52:30.310Z,100944.06
2018-02-04T20:54:57.850Z,100940.06
2018-02-04T20:57:25.322Z,100942.18
2018-02-04T20:59:52.894Z,100938.75
2018-02-04T21:02:20.381Z,100940.49
2018-02-04T21:04:47.928Z,100943.36
2018-02-04T21:07:15.493Z,100938.46
2018-02-04T21:09:42.969Z,100940.78
2018-02-04T21:12:10.476Z,100949.03
2018-02-04T21:14:38.013Z,100956.14
2018-02-04T21:17:05.521Z,100960.34
2018-02-04T21:19:33.029Z,100966.13
2018-02-04T21:22:00.557Z,100959.34
2018-02-04T21:24:28.525Z,100959.22
2018-02-04T21:26:56.010Z,100962.70
2018-02-04T21:29:23.517Z,100968.23
2018-02-04T21:31:50.998Z,100961.58
2018-02-04T21:34:18.552Z,100960.60
2018-02-04T21:36:46.030Z,100968.69
2018-02-04T21:39:13.554Z,100970.88
2018-02-04T21:41:41.035Z,100975.46
2018-02-04T21:44:08.541Z,100968.55
2018-02-04T21:46:36.016Z,100968.66
2018-02-04T21:49:03.547Z,100973.16
2018-02-04T21:51:31.046Z,100980.49
2018-02-04T21:53:58.756Z,100985.25
2018-02-04T21:56:26.304Z,100988.98
2018-02-04T21:58:53.930Z,100987.09
2018-02-04T22:01:21.452Z,100990.56
2018-02-04T22:03:48.963Z,100991.50
2018-02-04T22:06:16.450Z,100989.14
2018-02-04T22:08:43.942Z,100994.25
2018-02-04T22:11:11.459Z,100991.41
2018-02-04T22:13:39.016Z,100991.88
2018-02-04T22:16:06.492Z,100999.52
2018-02-04T22:18:33.984Z,100998.58
2018-02-04T22:21:01.458Z,101001.27
2018-02-04T22:23:29.079Z,101008.75
2018-02-04T22:25:56.555Z,101005.05
2018-02-04T22:28:24.036Z,101004.28
2018-02-04T22:30:51.508Z,101005.81
2018-02-04T22:33:18.977Z,101002.23
2018-02-04T22:35:46.451Z,101005.81
2018-02-04T22:38:13.908Z,101003.61
2018-02-04T22:40:41.410Z,101004.23
2018-02-04T22:43:09.686Z,101013.79
2018-02-04T22:45:37.309Z,101023.34
2018-02-04T22:48:04.775Z,101025.98
2018-02-04T22:50:32.277Z,101019.77
2018-02-04T22:52:59.745Z,101023.47
2018-02-04T22:55:27.213Z,101025.55
2018-02-04T22:57:54.701Z,101029.64
2018-02-04T23:00:22.181Z,101035.18
2018-02-04T23:02:49.756Z,101044.13
2018-02-04T23:05:17.238Z,101041.51
2018-02-04T23:07:44.790Z,101042.55
2018-02-04T23:10:12.278Z,101042.70
2018-02-04T23:12:39.792Z,101046.05
2018-02-04T23:15:07.264Z,101048.16
2018-02-04T23:17:34.794Z,101048.45
2018-02-04T23:20:02.265Z,101051.52
2018-02-04T23:22:29.826Z,101047.58
2018-02-04T23:24:57.319Z,101049.36
2018-02-04T23:27:24.781Z,101045.70
2018-02-04T23:29:52.432Z,101042.98
2018-02-04T23:32:19.894Z,101047.69
2018-02-04T23:34:47.372Z,101040.02
2018-02-04T23:37:14.852Z,101047.23
2018-02-04T23:39:42.345Z,101046.21
2018-02-04T23:42:09.808Z,101044.90
2018-02-04T23:44:37.276Z,101046.09
2018-02-04T23:47:04.785Z,101048.67
2018-02-04T23:49:32.311Z,101048.31
2018-02-04T23:51:59.805Z,101049.77
2018-02-04T23:54:27.266Z,101053.83
2018-02-04T23:56:54.742Z,101061.29
2018-02-04T23:59:22.235Z,101050.80
